Time;durP1;ratioP1;P1;durP2;ratioP2;P2;SDS_P1;SDS_P2;PMS_P1;PMS_P2;Temp;Humidity;BMP_temperature;BMP_pressure;BME280_temperature;BME280_humidity;BME280_pressure;Samples;Min_cycle;Max_cycle;Signal;HPM_P1;HPM_P2
2022/06/23 00:00:36;;;;;;;26.80;11.68;;;;;;;22.74;100.00;100118.19;5078017;28;20055;-84
2022/06/23 00:03:04;;;;;;;37.33;12.75;;;;;;;22.83;100.00;100121.28;5053035;28;20362;-84
2022/06/23 00:05:38;;;;;;;27.60;11.90;;;;;;;22.70;100.00;100106.28;5053801;28;20037;-85
2022/06/23 00:08:11;;;;;;;26.48;11.43;;;;;;;22.79;100.00;100112.03;5053825;28;20029;-85
2022/06/23 00:10:40;;;;;;;24.33;11.25;;;;;;;22.84;100.00;100112.09;5053522;28;20044;-85
2022/06/23 00:13:16;;;;;;;27.10;11.50;;;;;;;22.85;100.00;100111.84;5053907;28;20033;-82
2022/06/23 00:15:43;;;;;;;30.45;11.13;;;;;;;22.94;100.00;100115.72;5053617;28;20478;-80
2022/06/23 00:18:23;;;;;;;24.70;11.52;;;;;;;22.92;100.00;100115.19;5035707;28;20064;-85
2022/06/23 00:21:02;;;;;;;23.92;11.25;;;;;;;22.87;100.00;100114.31;5053211;28;20071;-83
2022/06/23 00:23:41;;;;;;;31.05;11.73;;;;;;;22.77;100.00;100106.88;5059989;28;20056;-85
2022/06/23 00:26:12;;;;;;;27.80;11.93;;;;;;;22.58;100.00;100111.75;5067522;28;20077;-87
2022/06/23 00:28:50;;;;;;;32.35;11.57;;;;;;;22.56;100.00;100108.50;5066982;28;20033;-84
2022/06/23 00:31:27;;;;;;;27.80;12.32;;;;;;;22.69;100.00;100112.75;5075280;28;20028;-85
2022/06/23 00:33:53;;;;;;;22.23;11.95;;;;;;;22.71;100.00;100104.38;5077476;28;20106;-84
2022/06/23 00:36:46;;;;;;;26.30;11.85;;;;;;;22.74;100.00;100111.97;5077569;28;20028;-84
2022/06/23 00:39:28;;;;;;;31.45;13.30;;;;;;;22.80;100.00;100117.22;5060535;28;20037;-85
2022/06/23 00:41:54;;;;;;;28.90;12.80;;;;;;;22.57;100.00;100120.91;5089302;28;20071;-85
2022/06/23 00:44:42;;;;;;;31.48;13.38;;;;;;;22.62;100.00;100114.78;5093387;28;20282;-83
2022/06/23 00:47:18;;;;;;;25.30;12.43;;;;;;;22.73;100.00;100115.75;5098944;28;20059;-86
2022/06/23 00:50:15;;;;;;;30.13;12.90;;;;;;;22.62;100.00;100118.28;5077679;28;20040;-85
2022/06/23 00:52:47;;;;;;;31.33;12.90;;;;;;;22.49;100.00;100113.25;5096712;28;20051;-88
2022/06/23 00:55:37;;;;;;;25.52;12.27;;;;;;;22.46;100.00;100121.88;5059525;28;20443;-85
2022/06/23 00:58:15;;;;;;;28.20;11.98;;;;;;;22.33;100.00;100119.53;5076986;28;20037;-83
2022/06/23 01:00:42;;;;;;;24.70;13.23;;;;;;;22.26;100.00;100113.47;5077138;28;20040;-80
2022/06/23 01:03:07;;;;;;;26.73;12.63;;;;;;;22.31;100.00;100110.00;5076484;28;20029;-82
2022/06/23 01:05:49;;;;;;;26.65;11.65;;;;;;;22.23;100.00;100108.56;5076098;28;20060;-86
2022/06/23 01:08:22;;;;;;;28.05;12.27;;;;;;;22.24;100.00;100114.78;5076628;28;20032;-86
2022/06/23 01:10:57;;;;;;;26.60;10.77;;;;;;;22.29;100.00;100112.16;5076788;28;20245;-86
2022/06/23 01:13:46;;;;;;;28.50;11.45;;;;;;;22.28;100.00;100099.72;5076636;28;20111;-85
2022/06/23 01:16:21;;;;;;;30.55;11.85;;;;;;;22.39;100.00;100096.91;5059071;28;20385;-87
2022/06/23 01:19:18;;;;;;;27.63;11.95;;;;;;;22.38;100.00;100099.84;5077453;28;20033;-89
2022/06/23 01:21:53;;;;;;;35.97;12.45;;;;;;;22.17;100.00;100101.47;5080005;28;20032;-85
2022/06/23 01:24:22;;;;;;;28.70;11.60;;;;;;;22.22;100.00;100098.00;5092329;28;20029;-82
2022/06/23 01:27:09;;;;;;;25.25;11.40;;;;;;;22.12;100.00;100096.81;5094396;28;20047;-83
2022/06/23 01:29:46;;;;;;;26.30;10.73;;;;;;;22.09;100.00;100086.50;5089386;28;20033;-87
2022/06/23 01:32:23;;;;;;;28.60;11.48;;;;;;;22.03;100.00;100087.50;5078893;28;20032;-87
2022/06/23 01:34:49;;;;;;;22.58;10.95;;;;;;;21.99;100.00;100085.53;5076730;28;20041;-87
2022/06/23 01:37:14;;;;;;;30.50;11.93;;;;;;;22.00;100.00;100093.41;5076881;28;20036;-85
2022/06/23 01:40:06;;;;;;;30.35;13.25;;;;;;;22.07;100.00;100090.53;5058868;28;20029;-89
2022/06/23 01:43:00;;;;;;;31.50;11.52;;;;;;;22.09;100.00;100091.91;5059111;28;20040;-86
2022/06/23 01:45:32;;;;;;;26.80;10.57;;;;;;;22.17;100.00;100092.56;5076259;28;20055;-90
2022/06/23 01:48:16;;;;;;;23.42;10.80;;;;;;;22.13;100.00;100098.44;5076177;28;20036;-88
2022/06/23 01:50:49;;;;;;;21.67;10.93;;;;;;;22.07;100.00;100094.00;5058405;28;20102;-89
2022/06/23 01:53:18;;;;;;;22.35;11.13;;;;;;;22.04;100.00;100094.50;5075570;28;20393;-85
2022/06/23 01:56:06;;;;;;;22.70;10.02;;;;;;;21.85;100.00;100095.81;5075896;28;20033;-87
2022/06/23 01:58:52;;;;;;;28.65;12.05;;;;;;;21.76;100.00;100101.88;5045784;28;20048;-81
2022/06/23 02:01:45;;;;;;;25.60;10.38;;;;;;;21.87;100.00;100085.59;5076267;28;20496;-84
2022/06/23 02:04:30;;;;;;;24.92;10.40;;;;;;;21.80;100.00;100103.84;5049379;28;20040;-87
2022/06/23 02:07:18;;;;;;;22.60;10.88;;;;;;;21.74;100.00;100093.22;5075427;28;20387;-86
2022/06/23 02:09:50;;;;;;;28.15;11.40;;;;;;;21.81;100.00;100088.47;5074605;28;20044;-87
2022/06/23 02:12:28;;;;;;;31.40;10.57;;;;;;;21.77;100.00;100088.16;5075840;28;20036;-88
2022/06/23 02:15:00;;;;;;;21.08;10.43;;;;;;;21.69;100.00;100091.25;5074976;28;20033;-87
2022/06/23 02:17:47;;;;;;;28.35;11.38;;;;;;;21.59;100.00;100091.88;5075156;28;20052;-86
2022/06/23 02:20:26;;;;;;;28.58;10.48;;;;;;;21.47;100.00;100093.03;5075630;28;20131;-85
2022/06/23 02:23:03;;;;;;;26.38;10.07;;;;;;;21.63;100.00;100093.03;5076582;28;20025;-80
2022/06/23 02:25:36;;;;;;;29.23;10.48;;;;;;;21.74;100.00;100094.03;5077779;28;20036;-85
2022/06/23 02:28:22;;;;;;;27.50;10.48;;;;;;;21.69;100.00;100096.63;5085147;28;20024;-83
2022/06/23 02:30:55;;;;;;;24.90;10.70;;;;;;;21.62;100.00;100101.38;5087796;28;20192;-87
2022/06/23 02:33:34;;;;;;;29.70;10.70;;;;;;;21.59;100.00;100105.38;5088331;28;20445;-85
2022/06/23 02:36:36;;;;;;;23.98;9.52;;;;;;;21.58;100.00;100106.44;5094724;28;20039;-81
2022/06/23 02:39:07;;;;;;;28.52;9.98;;;;;;;21.57;100.00;100104.00;5094289;28;20016;-87
2022/06/23 02:41:52;;;;;;;33.25;11.00;;;;;;;21.67;100.00;100101.47;5074998;28;20416;-86
2022/06/23 02:44:52;;;;;;;30.02;9.95;;;;;;;21.82;100.00;100106.28;5074533;28;20051;-82
2022/06/23 02:47:41;;;;;;;27.50;9.50;;;;;;;21.54;100.00;100104.47;5074858;28;20032;-87
2022/06/23 02:50:42;;;;;;;24.15;9.85;;;;;;;21.37;100.00;100103.63;5074643;28;20490;-81
2022/06/23 02:53:11;;;;;;;25.48;10.15;;;;;;;21.35;100.00;100108.44;5074235;28;20448;-83
2022/06/23 02:55:50;;;;;;;35.90;10.43;;;;;;;21.29;100.00;100112.09;5074156;28;20039;-86
2022/06/23 02:58:24;;;;;;;37.35;10.35;;;;;;;21.45;100.00;100103.22;5074327;28;20032;-85
2022/06/23 03:01:01;;;;;;;33.03;10.05;;;;;;;21.43;100.00;100102.66;5073735;28;20127;-86
2022/06/23 03:03:37;;;;;;;26.67;9.77;;;;;;;21.54;100.00;100107.97;5074871;28;20036;-86
2022/06/23 03:06:47;;;;;;;31.88;9.50;;;;;;;21.50;100.00;100112.25;5074355;28;20028;-84
2022/06/23 03:09:22;;;;;;;28.08;10.35;;;;;;;21.36;100.00;100107.38;5074225;28;20085;-88
2022/06/23 03:12:02;;;;;;;26.65;9.10;;;;;;;21.37;100.00;100115.25;5074255;28;20085;-86
2022/06/23 03:14:51;;;;;;;22.15;8.75;;;;;;;21.32;100.00;100112.44;5074505;28;20041;-87
2022/06/23 03:17:26;;;;;;;25.23;9.25;;;;;;;21.35;100.00;100111.13;5056620;28;20081;-87
2022/06/23 03:20:04;;;;;;;37.05;9.38;;;;;;;21.37;100.00;100103.63;5073826;28;20036;-86
2022/06/23 03:22:45;;;;;;;29.75;9.40;;;;;;;21.48;100.00;100110.81;5073732;28;20048;-87
2022/06/23 03:25:35;;;;;;;43.25;9.50;;;;;;;21.42;100.00;100111.78;5073461;28;20511;-88
2022/06/23 03:28:09;;;;;;;24.00;8.93;;;;;;;21.48;100.00;100111.66;5073924;28;20439;-81
2022/06/23 03:30:46;;;;;;;27.70;9.43;;;;;;;21.49;100.00;100118.69;5073373;28;20481;-90
2022/06/23 03:33:14;;;;;;;29.30;9.27;;;;;;;21.45;100.00;100116.69;5074332;28;20035;-87
2022/06/23 03:35:46;;;;;;;30.55;8.40;;;;;;;21.30;100.00;100119.13;5073709;28;20063;-88
2022/06/23 03:41:36;;;;;;;35.42;8.77;;;;;;;21.19;100.00;100120.00;5074058;28;20043;-87
2022/06/23 03:44:11;;;;;;;35.92;9.43;;;;;;;21.31;100.00;100123.47;5073417;28;20151;-86
2022/06/23 03:46:47;;;;;;;27.38;8.95;;;;;;;21.24;100.00;100126.31;5073722;28;20059;-86
2022/06/23 03:49:28;;;;;;;30.33;9.00;;;;;;;21.21;100.00;100128.69;5073448;28;20037;-86
2022/06/23 03:51:59;;;;;;;34.45;9.27;;;;;;;21.28;100.00;100132.84;5074596;28;20040;-88
2022/06/23 03:54:46;;;;;;;34.13;9.50;;;;;;;21.34;100.00;100128.38;5073383;28;20039;-86
2022/06/23 03:57:29;;;;;;;32.95;9.55;;;;;;;21.40;100.00;100130.09;5074749;28;20195;-85
2022/06/23 04:00:18;;;;;;;38.97;9.38;;;;;;;21.46;100.00;100129.97;5074097;28;20112;-88
2022/06/23 04:02:48;;;;;;;25.85;8.95;;;;;;;21.33;100.00;100129.44;5073922;28;20032;-88
2022/06/23 04:05:58;;;;;;;36.78;9.30;;;;;;;21.22;100.00;100133.81;5073798;28;20032;-86
2022/06/23 04:08:30;;;;;;;36.58;9.88;;;;;;;21.22;100.00;100133.00;5052960;28;20044;-88
2022/06/23 04:11:43;;;;;;;29.70;9.10;;;;;;;21.37;100.00;100144.06;5073546;28;20512;-88
2022/06/23 04:13:45;;;;;;;28.52;9.70;;;;;;;21.37;100.00;100146.78;5073318;28;20039;-86
2022/06/23 04:16:12;;;;;;;29.33;9.20;;;;;;;21.29;100.00;100139.88;5073883;28;20020;-83
2022/06/23 04:18:46;;;;;;;41.60;8.82;;;;;;;21.35;100.00;100146.19;5056207;28;20055;-90
2022/06/23 04:21:17;;;;;;;40.80;9.07;;;;;;;21.43;100.00;100146.63;5073123;28;20541;-85
2022/06/23 04:23:49;;;;;;;32.78;9.23;;;;;;;21.58;100.00;100148.75;5072961;28;20071;-82
2022/06/23 04:26:22;;;;;;;33.15;8.38;;;;;;;21.63;100.00;100146.16;5074449;28;20261;-87
2022/06/23 04:28:55;;;;;;;32.33;8.85;;;;;;;21.70;100.00;100154.94;5073325;28;20044;-84
2022/06/23 04:31:28;;;;;;;37.55;9.18;;;;;;;21.66;100.00;100156.47;5073941;28;20039;-87
2022/06/23 04:33:55;;;;;;;34.85;8.90;;;;;;;21.55;100.00;100160.03;5073430;28;20036;-82
2022/06/23 04:36:24;;;;;;;38.33;9.38;;;;;;;21.51;100.00;100165.09;5073031;28;20119;-84
2022/06/23 04:39:05;;;;;;;35.97;9.50;;;;;;;21.54;100.00;100163.81;5055077;28;20435;-79
2022/06/23 04:41:41;;;;;;;35.90;9.73;;;;;;;21.57;100.00;100163.31;5073215;28;20462;-80
2022/06/23 04:44:15;;;;;;;31.65;8.55;;;;;;;21.73;100.00;100165.22;5072762;28;20498;-78
2022/06/23 04:46:47;;;;;;;31.48;8.82;;;;;;;21.74;100.00;100164.16;5073157;28;20029;-81
2022/06/23 04:49:29;;;;;;;28.80;8.27;;;;;;;21.85;100.00;100176.75;5074919;28;20040;-88
2022/06/23 04:52:12;;;;;;;31.83;7.83;;;;;;;21.91;100.00;100170.41;5072991;28;20029;-79
2022/06/23 04:54:56;;;;;;;35.25;9.38;;;;;;;22.08;100.00;100167.72;5073443;28;20063;-80
2022/06/23 04:57:46;;;;;;;30.92;9.68;;;;;;;22.21;100.00;100174.66;5074475;28;20109;-78
2022/06/23 05:00:29;;;;;;;36.47;9.07;;;;;;;22.31;100.00;100185.63;5075716;28;20083;-78
2022/06/23 05:02:58;;;;;;;33.05;9.07;;;;;;;22.27;100.00;100189.91;5076550;28;20105;-82
2022/06/23 05:05:31;;;;;;;34.75;8.50;;;;;;;22.30;100.00;100194.81;5095229;28;20039;-79
2022/06/23 05:08:14;;;;;;;30.50;7.90;;;;;;;22.36;100.00;100199.22;5094319;28;20028;-86
2022/06/23 05:10:51;;;;;;;33.17;8.45;;;;;;;22.43;100.00;100195.28;5091536;28;20059;-87
2022/06/23 05:13:40;;;;;;;35.03;8.02;;;;;;;22.53;100.00;100205.41;5082870;28;20039;-87
2022/06/23 05:16:12;;;;;;;39.60;9.30;;;;;;;22.57;100.00;100206.56;5083804;28;20146;-84
2022/06/23 05:18:44;;;;;;;38.72;10.45;;;;;;;22.62;100.00;100198.50;5095199;28;20029;-80
2022/06/23 05:21:39;;;;;;;48.13;10.90;;;;;;;22.60;100.00;100203.34;5105004;28;20032;-83
2022/06/23 05:24:08;;;;;;;33.55;10.57;;;;;;;22.60;100.00;100206.84;5093776;28;20036;-89
2022/06/23 05:27:00;;;;;;;42.00;11.93;;;;;;;22.69;100.00;100204.59;5081076;28;20107;-88
2022/06/23 05:29:32;;;;;;;32.50;11.40;;;;;;;22.82;100.00;100209.63;5094158;28;20040;-87
2022/06/23 05:32:04;;;;;;;35.33;10.68;;;;;;;22.88;100.00;100216.75;5091050;28;20028;-87
2022/06/23 05:34:34;;;;;;;35.38;11.65;;;;;;;22.97;100.00;100214.41;5111029;28;20043;-84
2022/06/23 05:37:46;;;;;;;34.33;10.85;;;;;;;23.13;100.00;100219.75;5092905;28;20060;-85
2022/06/23 05:40:26;;;;;;;34.05;11.15;;;;;;;23.16;100.00;100216.59;5098070;28;20036;-82
2022/06/23 05:42:58;;;;;;;36.97;11.02;;;;;;;23.34;99.13;100222.72;5087325;28;20092;-84
2022/06/23 05:45:40;;;;;;;40.60;11.48;;;;;;;23.49;96.83;100225.66;5073916;28;20396;-88
2022/06/23 05:48:07;;;;;;;;;;;;;;;23.63;95.34;100230.38;5076977;28;20037;-84
2022/06/23 05:50:45;;;;;;;38.03;10.82;;;;;;;23.73;94.88;100232.38;5057910;28;19919;-91
2022/06/23 05:53:34;;;;;;;44.65;10.80;;;;;;;24.00;92.79;100233.19;5075941;28;20032;-86
2022/06/23 05:56:14;;;;;;;34.35;9.50;;;;;;;24.36;90.36;100238.97;5095011;28;20028;-89
2022/06/23 05:58:49;;;;;;;41.95;10.13;;;;;;;24.52;89.41;100248.81;5094608;28;20036;-88
2022/06/23 06:01:28;;;;;;;33.78;9.30;;;;;;;24.68;88.44;100245.97;5094890;28;20040;-87
2022/06/23 06:04:05;;;;;;;25.55;8.60;;;;;;;24.76;88.51;100244.63;5094962;28;20024;-90
2022/06/23 06:06:33;;;;;;;31.95;9.02;;;;;;;24.82;88.17;100249.06;5094739;28;20431;-83
2022/06/23 06:11:51;;;;;;;31.00;9.00;;;;;;;25.07;87.27;100232.91;5076541;28;20067;-88
2022/06/23 06:14:20;;;;;;;35.08;8.35;;;;;;;25.28;86.15;100233.00;5095057;28;20093;-90
2022/06/23 06:16:49;;;;;;;32.72;7.32;;;;;;;25.60;85.02;100233.69;5095128;28;20385;-87
2022/06/23 06:19:17;;;;;;;33.28;8.65;;;;;;;25.47;85.24;100231.44;5082821;28;20039;-85
2022/06/23 06:21:44;;;;;;;26.17;8.00;;;;;;;25.27;85.80;100242.22;5082771;28;20082;-81
2022/06/23 06:24:35;;;;;;;28.58;8.57;;;;;;;25.37;86.96;100247.69;5102657;28;20020;-84
2022/06/23 06:27:11;;;;;;;24.25;9.25;;;;;;;25.41;86.29;100237.94;5098814;28;20040;-87
2022/06/23 06:29:40;;;;;;;33.28;8.80;;;;;;;25.34;87.24;100242.78;5078749;28;20036;-88
2022/06/23 06:32:27;;;;;;;32.20;8.82;;;;;;;25.51;86.81;100240.72;5096456;28;20075;-88
2022/06/23 06:35:10;;;;;;;31.15;9.85;;;;;;;25.68;86.11;100246.75;5096956;28;20036;-85
2022/06/23 06:37:42;;;;;;;29.08;9.05;;;;;;;25.83;84.92;100240.50;5096713;28;20020;-86
2022/06/23 06:40:08;;;;;;;28.52;9.05;;;;;;;25.97;84.05;100253.31;5060089;28;20127;-86
2022/06/23 06:42:39;;;;;;;38.22;8.98;;;;;;;26.02;83.68;100245.16;5075728;28;20036;-82
2022/06/23 06:45:08;;;;;;;32.55;8.23;;;;;;;26.23;82.43;100247.91;5075672;28;20444;-89
2022/06/23 06:47:37;;;;;;;28.20;8.77;;;;;;;26.31;82.56;100256.38;5077038;28;20021;-85
2022/06/23 06:50:24;;;;;;;31.20;8.85;;;;;;;26.53;80.75;100275.09;5074506;28;20047;-86
2022/06/23 06:52:51;;;;;;;22.73;8.32;;;;;;;26.71;79.90;100290.84;5076250;28;20505;-89
2022/06/23 06:55:19;;;;;;;27.58;8.30;;;;;;;26.64;80.51;100293.03;5075188;28;20047;-86
2022/06/23 06:57:51;;;;;;;30.08;8.00;;;;;;;27.19;76.64;100282.06;5056796;28;20032;-89
2022/06/23 07:00:25;;;;;;;33.47;8.73;;;;;;;26.96;78.77;100273.69;5074140;28;20044;-84
2022/06/23 07:02:58;;;;;;;34.42;8.20;;;;;;;26.98;78.26;100280.47;5074073;28;20036;-89
2022/06/23 07:05:34;;;;;;;32.45;8.63;;;;;;;26.97;76.96;100281.59;5074946;28;20123;-90
2022/06/23 07:08:23;;;;;;;32.10;9.35;;;;;;;26.95;78.29;100274.78;5074898;28;20040;-86
2022/06/23 07:10:52;;;;;;;29.75;8.15;;;;;;;27.37;76.14;100277.13;5073309;28;20048;-87
2022/06/23 07:13:46;;;;;;;32.08;7.80;;;;;;;27.71;73.94;100284.31;5062550;28;20094;-86
2022/06/23 07:16:27;;;;;;;32.45;8.15;;;;;;;27.89;72.18;100280.13;5075381;28;20028;-85
2022/06/23 07:19:03;;;;;;;32.95;8.27;;;;;;;28.51;68.25;100286.78;5076540;28;20481;-90
2022/06/23 07:21:45;;;;;;;34.20;7.88;;;;;;;28.39;67.02;100299.97;5072610;28;20119;-89
2022/06/23 07:25:01;;;;;;;32.45;7.28;;;;;;;28.17;66.56;100301.22;5072302;28;20028;-85
2022/06/23 07:27:37;;;;;;;38.10;7.45;;;;;;;28.27;65.65;100302.25;4991545;28;20030;-86
2022/06/23 07:30:11;;;;;;;37.95;8.23;;;;;;;28.61;64.17;100297.59;5053345;28;20055;-86
2022/06/23 07:32:39;;;;;;;31.52;7.38;;;;;;;28.77;62.03;100301.84;5072123;28;20407;-87
2022/06/23 07:35:17;;;;;;;28.38;7.07;;;;;;;28.87;61.45;100301.75;5072705;28;20028;-85
2022/06/23 07:37:57;;;;;;;21.45;6.20;;;;;;;29.72;58.68;100293.69;5073046;28;20115;-87
2022/06/23 07:40:26;;;;;;;30.42;7.78;;;;;;;29.30;59.11;100299.16;5072842;28;20366;-89
2022/06/23 07:43:03;;;;;;;29.02;6.82;;;;;;;28.87;61.27;100296.28;5073089;28;20028;-88
2022/06/23 07:45:35;;;;;;;27.25;6.68;;;;;;;28.70;62.40;100307.63;5073223;28;20098;-88
2022/06/23 07:48:01;;;;;;;38.83;7.60;;;;;;;28.40;63.47;100304.34;5076980;28;20054;-93
2022/06/23 07:50:29;;;;;;;37.28;8.77;;;;;;;28.23;64.44;100308.28;5075224;28;20053;-89
2022/06/23 07:52:55;;;;;;;35.55;8.52;;;;;;;28.22;64.09;100306.66;5056266;28;20485;-91
2022/06/23 07:55:43;;;;;;;35.50;9.25;;;;;;;28.14;65.29;100307.22;5075261;28;20040;-92
2022/06/23 07:58:08;;;;;;;29.45;9.43;;;;;;;28.13;65.35;100311.06;5074298;28;20040;-91
2022/06/23 08:00:39;;;;;;;36.90;10.50;;;;;;;28.04;65.56;100301.81;5073492;28;20059;-89
2022/06/23 08:03:20;;;;;;;39.92;9.13;;;;;;;28.01;66.46;100304.28;5073631;28;20029;-89
2022/06/23 08:05:54;;;;;;;31.40;9.50;;;;;;;28.12;66.08;100304.00;5073906;28;20028;-86
2022/06/23 08:08:23;;;;;;;30.02;9.00;;;;;;;28.15;65.89;100300.69;5074501;28;20041;-88
2022/06/23 08:13:38;;;;;;;33.92;10.90;;;;;;;27.96;67.02;100299.72;5072958;28;20485;-82
2022/06/23 08:19:06;;;;;;;35.53;9.27;;;;;;;28.08;67.44;100283.84;5091251;28;20111;-87
2022/06/23 08:21:39;;;;;;;42.05;10.55;;;;;;;28.53;65.64;100273.69;5063679;28;20052;-86
2022/06/23 08:24:18;;;;;;;31.60;11.38;;;;;;;28.88;63.66;100286.19;5100342;28;20036;-86
2022/06/23 08:26:53;;;;;;;40.63;12.77;;;;;;;28.97;63.20;100289.94;5116129;28;20051;-88
2022/06/23 08:29:24;;;;;;;35.60;9.85;;;;;;;29.25;62.19;100291.81;5115980;28;20054;-84
2022/06/23 08:31:49;;;;;;;30.33;9.93;;;;;;;29.57;61.84;100288.41;5098767;28;20031;-83
2022/06/23 08:34:15;;;;;;;36.20;9.85;;;;;;;30.21;57.94;100287.81;5105267;28;20017;-87
2022/06/23 08:36:45;;;;;;;45.30;12.77;;;;;;;30.38;57.21;100295.47;5103330;28;20079;-88
2022/06/23 08:39:18;;;;;;;26.00;7.80;;;;;;;30.33;57.33;100295.56;5097671;28;20024;-83
2022/06/23 08:42:18;;;;;;;41.13;11.43;;;;;;;30.44;57.16;100297.03;5112907;28;20036;-82
2022/06/23 08:44:46;;;;;;;41.72;12.43;;;;;;;30.46;57.05;100295.63;5117467;28;20054;-87
2022/06/23 08:47:32;;;;;;;29.27;9.07;;;;;;;30.61;56.46;100291.81;5118001;28;20032;-83
2022/06/23 08:50:05;;;;;;;37.15;11.55;;;;;;;30.53;56.87;100297.97;5114118;28;20028;-82
2022/06/23 08:52:58;;;;;;;35.50;9.90;;;;;;;31.00;56.42;100310.56;5096791;28;20043;-86
2022/06/23 08:55:29;;;;;;;;;;;;;;;31.16;55.08;100304.50;5092463;28;20031;-88
2022/06/23 08:58:07;;;;;;;35.28;10.30;;;;;;;31.49;53.47;100313.41;5114650;28;19923;-86
2022/06/23 09:00:35;;;;;;;42.40;9.30;;;;;;;31.74;53.04;100320.34;5100452;28;20092;-86
2022/06/23 09:03:35;;;;;;;27.60;8.93;;;;;;;32.13;51.36;100317.81;5089807;28;20025;-86
2022/06/23 09:06:27;;;;;;;37.53;9.90;;;;;;;31.70;51.88;100319.31;5082435;28;20116;-85
2022/06/23 09:08:53;;;;;;;35.10;10.93;;;;;;;31.80;52.67;100305.41;5039653;28;20041;-84
2022/06/23 09:11:28;;;;;;;30.85;9.60;;;;;;;32.42;50.76;100297.38;5060691;28;20057;-86
2022/06/23 09:14:15;;;;;;;26.17;8.80;;;;;;;33.21;48.16;100310.13;5076949;28;20039;-85
2022/06/23 09:17:25;;;;;;;28.58;9.07;;;;;;;32.83;49.42;100302.66;5081509;28;20029;-85
2022/06/23 09:20:24;;;;;;;26.90;8.25;;;;;;;32.46;49.64;100309.34;5076986;28;20045;-86
2022/06/23 09:23:17;;;;;;;35.70;9.32;;;;;;;32.12;49.91;100305.22;5058510;28;20036;-87
2022/06/23 09:25:49;;;;;;;32.30;9.23;;;;;;;32.03;49.66;100312.53;5076752;28;20071;-89
2022/06/23 09:28:14;;;;;;;26.20;7.95;;;;;;;32.20;50.03;100311.91;5076965;28;20124;-85
2022/06/23 09:31:02;;;;;;;31.15;7.18;;;;;;;32.68;48.15;100306.66;5076095;28;20445;-86
2022/06/23 09:34:01;;;;;;;34.05;8.10;;;;;;;32.91;45.63;100305.47;5077640;28;20037;-88
2022/06/23 09:36:42;;;;;;;38.08;8.38;;;;;;;32.57;45.25;100302.50;5065881;28;20111;-90
2022/06/23 09:39:32;;;;;;;31.05;7.80;;;;;;;32.51;45.15;100295.53;5084878;28;20032;-86
2022/06/23 09:42:14;;;;;;;35.15;7.93;;;;;;;31.24;48.84;100301.06;5092432;28;20086;-81
2022/06/23 09:45:28;;;;;;;33.78;8.00;;;;;;;31.18;50.71;100296.00;5075416;28;20039;-83
2022/06/23 09:48:18;;;;;;;33.45;8.70;;;;;;;31.80;49.15;100272.50;5100210;28;20062;-83
2022/06/23 09:51:22;;;;;;;29.85;7.93;;;;;;;31.48;49.28;100275.38;5094827;28;20033;-82
2022/06/23 09:54:10;;;;;;;33.88;7.82;;;;;;;31.64;49.01;100276.69;5069361;28;20051;-85
2022/06/23 09:57:03;;;;;;;28.38;8.57;;;;;;;31.28;49.89;100293.06;5064624;28;20477;-81
2022/06/23 09:59:50;;;;;;;36.25;8.82;;;;;;;30.85;51.22;100292.50;5063629;28;20043;-80
2022/06/23 10:02:52;;;;;;;30.58;8.15;;;;;;;31.23;50.19;100285.75;5068560;28;20115;-81
2022/06/23 10:05:32;;;;;;;36.20;9.07;;;;;;;31.21;49.33;100290.72;5071218;28;20138;-83
2022/06/23 10:08:04;;;;;;;34.33;8.13;;;;;;;31.04;49.89;100278.75;5065643;28;20283;-85
2022/06/23 10:10:42;;;;;;;32.20;7.63;;;;;;;31.15;49.80;100274.69;5070227;28;20443;-84
2022/06/23 10:13:28;;;;;;;30.80;7.50;;;;;;;31.30;48.72;100274.38;5081508;28;20116;-83
2022/06/23 10:16:06;;;;;;;38.92;7.65;;;;;;;31.36;48.81;100270.41;5069861;28;20036;-90
2022/06/23 10:19:14;;;;;;;29.98;7.07;;;;;;;31.10;48.32;100272.84;5081696;28;20051;-88
2022/06/23 10:21:48;;;;;;;34.15;6.82;;;;;;;30.91;48.71;100272.13;5075803;28;20060;-86
2022/06/23 10:24:30;;;;;;;41.30;7.35;;;;;;;31.44;47.46;100271.63;5078009;28;20037;-87
2022/06/23 10:27:14;;;;;;;42.30;8.07;;;;;;;31.77;46.60;100270.38;5081945;28;20029;-86
2022/06/23 10:30:03;;;;;;;29.85;7.32;;;;;;;32.06;46.07;100261.78;5078063;28;20051;-83
2022/06/23 10:32:37;;;;;;;40.33;7.30;;;;;;;31.99;45.54;100278.63;5065395;28;20064;-93
2022/06/23 10:35:37;;;;;;;28.95;6.85;;;;;;;31.63;46.30;100278.63;5076848;28;20488;-89
2022/06/23 10:38:16;;;;;;;32.78;7.95;;;;;;;31.97;45.46;100280.88;5077773;28;20044;-90
2022/06/23 10:41:09;;;;;;;28.27;6.68;;;;;;;32.17;45.17;100265.91;5071924;28;20032;-88
2022/06/23 10:44:03;;;;;;;35.97;7.40;;;;;;;32.63;44.16;100266.41;5081631;28;20082;-85
2022/06/23 10:46:49;;;;;;;35.00;6.72;;;;;;;32.91;44.31;100272.53;5066597;28;20052;-86
2022/06/23 10:49:49;;;;;;;33.35;6.80;;;;;;;32.87;44.43;100259.75;5073154;28;20123;-85
2022/06/23 10:52:40;;;;;;;33.97;7.03;;;;;;;32.46;44.39;100265.44;5062371;28;20028;-88
2022/06/23 10:55:25;;;;;;;38.80;6.70;;;;;;;31.67;46.74;100265.94;5074260;28;20581;-85
2022/06/23 10:58:12;;;;;;;36.20;7.07;;;;;;;30.74;48.73;100271.88;5073012;28;20028;-87
2022/06/23 11:00:50;;;;;;;33.53;7.30;;;;;;;30.76;48.47;100266.91;5078790;28;21180;-88
2022/06/23 11:03:41;;;;;;;29.48;6.75;;;;;;;30.90;47.93;100265.00;5073680;28;20449;-85
2022/06/23 11:06:29;;;;;;;34.45;6.30;;;;;;;30.36;49.79;100262.94;5059139;28;20063;-87
2022/06/23 11:09:06;;;;;;;49.40;7.57;;;;;;;30.40;49.35;100253.06;5074244;28;20072;-85
2022/06/23 11:12:10;;;;;;;48.03;7.18;;;;;;;30.51;50.86;100246.31;5062360;28;20044;-87
2022/06/23 11:15:00;;;;;;;45.75;7.70;;;;;;;30.77;50.78;100246.66;5044384;28;20051;-86
2022/06/23 11:17:37;;;;;;;24.67;6.78;;;;;;;30.50;51.35;100241.94;5087807;28;20035;-87
2022/06/23 11:20:17;;;;;;;38.75;6.65;;;;;;;30.53;50.63;100248.72;5088637;28;20035;-89
2022/06/23 11:22:46;;;;;;;30.70;6.40;;;;;;;30.36;51.04;100243.78;5039745;28;20456;-88
2022/06/23 11:25:21;;;;;;;27.60;7.15;;;;;;;30.08;51.81;100248.38;5067231;28;20028;-87
2022/06/23 11:28:08;;;;;;;30.65;6.03;;;;;;;30.15;51.86;100243.34;5070979;28;20033;-85
2022/06/23 11:31:06;;;;;;;27.38;6.32;;;;;;;30.38;51.47;100243.50;5077680;28;20040;-89
2022/06/23 11:33:50;;;;;;;32.33;7.00;;;;;;;30.20;52.37;100245.97;5082606;28;20064;-89
2022/06/23 11:36:22;;;;;;;33.08;7.05;;;;;;;30.11;53.33;100249.69;5071622;28;20040;-87
2022/06/23 11:39:00;;;;;;;53.05;6.70;;;;;;;30.05;54.10;100240.75;5083670;28;20032;-86
2022/06/23 11:41:54;;;;;;;44.10;7.35;;;;;;;30.02;54.36;100255.03;5073713;28;20070;-89
2022/06/23 11:44:52;;;;;;;44.33;7.97;;;;;;;29.88;53.87;100262.34;5067231;28;20041;-86
2022/06/23 11:47:25;;;;;;;33.83;7.32;;;;;;;29.87;52.92;100271.63;5061428;28;20052;-88
2022/06/23 11:50:19;;;;;;;35.92;6.68;;;;;;;29.73;53.31;100271.53;5063624;28;20401;-85
2022/06/23 11:53:08;;;;;;;35.45;6.13;;;;;;;29.59;53.75;100270.66;5062713;28;20075;-89
2022/06/23 11:55:43;;;;;;;35.78;5.93;;;;;;;29.62;54.02;100264.59;5054947;28;20033;-90
2022/06/23 11:58:13;;;;;;;35.97;6.20;;;;;;;29.53;54.01;100268.28;5081658;28;20115;-85
2022/06/23 12:00:59;;;;;;;35.50;6.70;;;;;;;29.44;53.94;100284.47;5081765;28;20123;-94
2022/06/23 12:03:43;;;;;;;37.70;7.25;;;;;;;29.47;54.52;100277.63;5042233;28;20036;-91
2022/06/23 12:06:31;;;;;;;37.10;7.00;;;;;;;29.27;54.30;100266.97;5081288;28;20036;-90
2022/06/23 12:09:25;;;;;;;50.75;7.05;;;;;;;29.01;56.36;100259.03;5105216;28;20039;-87
2022/06/23 12:11:57;;;;;;;42.22;6.75;;;;;;;28.97;57.60;100247.06;5054319;28;20516;-87
2022/06/23 12:14:30;;;;;;;33.13;6.60;;;;;;;28.88;59.15;100237.91;5086457;28;20028;-88
2022/06/23 12:17:26;;;;;;;29.73;5.72;;;;;;;28.66;59.05;100241.16;5061857;28;20041;-86
2022/06/23 12:19:59;;;;;;;28.40;6.07;;;;;;;28.56;58.67;100243.94;5074371;28;20052;-90